createdAt,value
2023-04-22T00:02:19.352Z,13.69
2023-04-22T00:04:46.568Z,13.75
2023-04-22T00:07:15.158Z,13.77
2023-04-22T00:09:42.689Z,13.57
2023-04-22T00:12:11.690Z,13.66
2023-04-22T00:14:38.864Z,13.48
2023-04-22T00:17:07.081Z,13.49
2023-04-22T00:19:34.892Z,13.38
2023-04-22T00:22:01.860Z,13.44
2023-04-22T00:24:29.402Z,13.62
2023-04-22T00:26:56.284Z,13.73
2023-04-22T00:29:22.991Z,13.70
2023-04-22T00:31:49.784Z,13.71
2023-04-22T00:34:18.308Z,13.74
2023-04-22T00:36:46.024Z,13.64
2023-04-22T00:39:12.774Z,13.77
2023-04-22T00:41:40.125Z,13.69
2023-04-22T00:44:11.188Z,13.62
2023-04-22T00:46:39.767Z,13.54
2023-04-22T00:49:08.682Z,13.36
2023-04-22T00:51:36.495Z,13.33
2023-04-22T00:54:04.619Z,13.29
2023-04-22T00:56:33.800Z,13.49
2023-04-22T00:59:00.464Z,13.43
2023-04-22T01:01:27.974Z,13.49
2023-04-22T01:03:55.081Z,13.59
2023-04-22T01:06:23.997Z,13.55
2023-04-22T01:08:51.136Z,13.34
2023-04-22T01:11:18.747Z,13.46
2023-04-22T01:13:45.993Z,13.51
2023-04-22T01:16:13.301Z,13.58
2023-04-22T01:18:40.348Z,13.64
2023-04-22T01:21:07.266Z,13.63
2023-04-22T01:23:34.179Z,13.45
2023-04-22T01:26:01.073Z,13.31
2023-04-22T01:28:29.096Z,13.34
2023-04-22T01:30:56.318Z,13.28
2023-04-22T01:33:23.734Z,13.21
2023-04-22T01:35:50.765Z,13.27
2023-04-22T01:38:18.100Z,13.31
2023-04-22T01:40:44.759Z,13.18
2023-04-22T01:43:11.383Z,13.17
2023-04-22T01:45:39.091Z,13.24
2023-04-22T01:48:09.112Z,13.19
2023-04-22T01:50:37.251Z,13.20
2023-04-22T01:53:04.058Z,13.14
2023-04-22T01:55:31.316Z,13.17
2023-04-22T01:57:58.184Z,13.27
2023-04-22T02:00:24.924Z,13.20
2023-04-22T02:02:52.050Z,13.19
2023-04-22T02:05:18.915Z,13.19
2023-04-22T02:07:46.848Z,13.28
2023-04-22T02:10:16.665Z,13.33
2023-04-22T02:12:44.483Z,13.20
2023-04-22T02:15:13.870Z,13.19
2023-04-22T02:17:42.598Z,13.18
2023-04-22T02:20:11.357Z,13.22
2023-04-22T02:22:39.076Z,13.27
2023-04-22T02:25:06.231Z,13.15
2023-04-22T02:27:33.277Z,13.18
2023-04-22T02:29:59.991Z,13.18
2023-04-22T02:32:26.796Z,13.15
2023-04-22T02:34:53.498Z,13.04
2023-04-22T02:37:22.823Z,13.00
2023-04-22T02:39:49.896Z,13.06
2023-04-22T02:42:17.340Z,13.23
2023-04-22T02:44:44.081Z,12.87
2023-04-22T02:47:10.940Z,12.77
2023-04-22T02:49:37.825Z,12.77
2023-04-22T02:52:05.158Z,12.90
2023-04-22T02:54:31.954Z,12.82
2023-04-22T02:56:58.895Z,12.83
2023-04-22T02:59:26.092Z,12.86
2023-04-22T03:01:53.030Z,12.86
2023-04-22T03:04:40.036Z,12.89
2023-04-22T03:07:06.711Z,12.94
2023-04-22T03:09:34.677Z,12.90
2023-04-22T03:12:02.572Z,12.93
2023-04-22T03:14:30.084Z,12.91
2023-04-22T03:16:57.147Z,12.86
2023-04-22T03:19:23.853Z,12.93
2023-04-22T03:21:50.538Z,12.86
2023-04-22T03:24:17.692Z,12.77
2023-04-22T03:26:49.121Z,12.72
2023-04-22T03:29:15.858Z,12.77
2023-04-22T03:31:43.377Z,12.69
2023-04-22T03:34:10.443Z,12.72
2023-04-22T03:36:37.788Z,12.81
2023-04-22T03:39:05.105Z,12.78
2023-04-22T03:41:33.485Z,12.89
2023-04-22T03:44:01.781Z,12.79
2023-04-22T03:46:30.196Z,12.76
2023-04-22T03:49:06.504Z,12.60
2023-04-22T03:51:35.124Z,12.60
2023-04-22T03:54:07.335Z,12.62
2023-04-22T03:56:37.541Z,12.59
2023-04-22T03:59:06.121Z,12.60
2023-04-22T04:01:34.052Z,12.55
2023-04-22T04:04:04.688Z,12.52
2023-04-22T04:06:44.309Z,12.34
2023-04-22T04:09:11.271Z,12.51
2023-04-22T04:11:38.568Z,12.41
2023-04-22T04:14:05.361Z,12.43
2023-04-22T04:16:48.733Z,12.53
2023-04-22T04:19:24.238Z,12.64
2023-04-22T04:21:51.904Z,12.36
2023-04-22T04:24:19.972Z,12.10
2023-04-22T04:26:49.498Z,11.98
2023-04-22T04:29:21.503Z,12.05
2023-04-22T04:31:59.251Z,12.19
2023-04-22T04:34:28.683Z,12.18
2023-04-22T04:36:56.961Z,12.20
2023-04-22T04:39:32.936Z,12.28
2023-04-22T04:42:01.429Z,12.19
2023-04-22T04:44:33.814Z,11.92
2023-04-22T04:47:05.193Z,11.79
2023-04-22T04:49:31.932Z,11.73
2023-04-22T04:52:01.758Z,11.63
2023-04-22T04:54:29.129Z,11.54
2023-04-22T04:56:58.483Z,11.70
2023-04-22T04:59:26.044Z,11.68
2023-04-22T05:01:54.296Z,11.78
2023-04-22T05:04:21.999Z,11.75
2023-04-22T05:06:49.077Z,11.74
2023-04-22T05:09:15.785Z,11.74
2023-04-22T05:11:44.032Z,11.68
2023-04-22T05:14:16.033Z,11.74
2023-04-22T05:16:45.644Z,11.87
2023-04-22T05:19:13.382Z,11.95
2023-04-22T05:21:41.969Z,11.85
2023-04-22T05:24:08.831Z,11.82
2023-04-22T05:26:36.082Z,11.75
2023-04-22T05:29:08.739Z,11.65
2023-04-22T05:31:35.613Z,11.68
2023-04-22T05:34:02.326Z,11.70
2023-04-22T05:36:31.456Z,11.67
2023-04-22T05:38:59.548Z,11.65
2023-04-22T05:41:27.123Z,11.63
2023-04-22T05:43:56.266Z,11.72
2023-04-22T05:46:23.268Z,12.04
2023-04-22T05:48:51.236Z,11.91
2023-04-22T05:51:47.288Z,11.79
2023-04-22T05:54:18.370Z,11.80
2023-04-22T05:56:45.224Z,11.87
2023-04-22T05:59:11.976Z,11.96
2023-04-22T06:01:38.806Z,11.94
2023-04-22T06:04:09.954Z,12.15
2023-04-22T06:06:37.123Z,12.29
2023-04-22T06:09:03.988Z,12.38
2023-04-22T06:11:30.731Z,12.49
2023-04-22T06:13:57.420Z,12.68
2023-04-22T06:16:24.145Z,13.01
2023-04-22T06:18:51.187Z,13.22
2023-04-22T06:21:17.925Z,13.19
2023-04-22T06:23:44.640Z,13.58
2023-04-22T06:26:11.625Z,13.84
2023-04-22T06:28:38.488Z,13.80
2023-04-22T06:31:10.851Z,13.91
2023-04-22T06:33:38.172Z,14.09
2023-04-22T06:36:05.658Z,14.35
2023-04-22T06:38:33.626Z,14.59
2023-04-22T06:41:23.526Z,14.52
2023-04-22T06:43:52.512Z,14.38
2023-04-22T06:46:44.938Z,14.27
2023-04-22T06:49:39.564Z,14.15
2023-04-22T06:52:18.263Z,14.61
2023-04-22T06:54:45.653Z,15.12
2023-04-22T06:57:12.338Z,15.56
2023-04-22T06:59:39.500Z,15.63
2023-04-22T07:02:07.628Z,15.92
2023-04-22T07:04:37.467Z,15.93
2023-04-22T07:07:04.854Z,16.04
2023-04-22T07:09:31.854Z,15.45
2023-04-22T07:11:59.142Z,15.15
2023-04-22T07:14:29.295Z,15.45
2023-04-22T07:16:56.135Z,15.65
2023-04-22T07:19:22.942Z,15.71
2023-04-22T07:21:49.628Z,15.67
2023-04-22T07:24:16.612Z,15.81
2023-04-22T07:26:44.915Z,15.66
2023-04-22T07:29:12.954Z,15.67
2023-04-22T07:31:41.320Z,15.59
2023-04-22T07:34:10.505Z,15.86
2023-04-22T07:36:37.451Z,16.29
2023-04-22T07:39:04.240Z,16.55
2023-04-22T07:41:31.668Z,16.49
2023-04-22T07:43:58.345Z,16.72
2023-04-22T07:46:25.149Z,16.86
2023-04-22T07:48:51.794Z,16.56
2023-04-22T07:51:18.441Z,16.41
2023-04-22T07:53:45.571Z,16.72
2023-04-22T07:56:13.000Z,16.63
2023-04-22T07:58:40.738Z,16.94
2023-04-22T08:01:07.499Z,16.49
2023-04-22T08:03:34.381Z,16.51
2023-04-22T08:06:01.292Z,16.99
2023-04-22T08:08:28.116Z,17.27
2023-04-22T08:10:54.808Z,17.26
2023-04-22T08:13:21.504Z,17.61
2023-04-22T08:15:48.178Z,17.60
2023-04-22T08:18:15.175Z,18.02
2023-04-22T08:20:41.803Z,17.95
2023-04-22T08:23:08.446Z,17.40
2023-04-22T08:25:35.393Z,16.68
2023-04-22T08:28:02.421Z,16.90
2023-04-22T08:30:29.173Z,16.60
2023-04-22T08:32:56.085Z,16.87
2023-04-22T08:35:22.826Z,16.93
2023-04-22T08:37:49.467Z,16.87
2023-04-22T08:40:16.358Z,16.77
2023-04-22T08:42:44.636Z,16.59
2023-04-22T08:45:13.186Z,16.51
2023-04-22T08:47:41.236Z,16.68
2023-04-22T08:50:09.643Z,17.21
2023-04-22T08:52:36.652Z,17.43
2023-04-22T08:55:04.046Z,17.92
2023-04-22T08:57:32.075Z,18.29
2023-04-22T08:59:59.317Z,18.59
2023-04-22T09:02:27.067Z,18.48
2023-04-22T09:04:54.083Z,18.27
2023-04-22T09:07:26.898Z,18.29
2023-04-22T09:09:55.539Z,17.78
2023-04-22T09:12:22.702Z,17.88
2023-04-22T09:14:49.481Z,17.78
2023-04-22T09:17:17.612Z,17.92
2023-04-22T09:19:45.712Z,17.97
2023-04-22T09:22:16.145Z,18.04
2023-04-22T09:24:49.009Z,18.09
2023-04-22T09:27:17.628Z,18.12
2023-04-22T09:29:52.302Z,18.17
2023-04-22T09:32:19.480Z,18.35
2023-04-22T09:34:52.227Z,18.50
2023-04-22T09:37:30.813Z,18.79
2023-04-22T09:40:04.188Z,19.09
2023-04-22T09:42:31.296Z,18.75
2023-04-22T09:45:00.006Z,18.82
2023-04-22T09:47:36.650Z,18.78
2023-04-22T09:50:06.809Z,18.33
2023-04-22T09:52:33.558Z,18.44
2023-04-22T09:55:00.214Z,18.59
2023-04-22T09:57:27.703Z,18.60
2023-04-22T09:59:58.950Z,18.45
2023-04-22T10:02:29.884Z,18.82
2023-04-22T10:04:58.430Z,19.05
2023-04-22T10:07:31.252Z,19.36
2023-04-22T10:09:58.395Z,19.37
2023-04-22T10:12:35.286Z,19.16
2023-04-22T10:15:07.663Z,19.45
2023-04-22T10:17:38.050Z,19.39
2023-04-22T10:20:13.656Z,19.59
2023-04-22T10:22:42.812Z,19.78
2023-04-22T10:25:23.529Z,19.96
2023-04-22T10:28:03.164Z,20.06
2023-04-22T10:30:32.219Z,19.91
2023-04-22T10:33:27.462Z,19.84
2023-04-22T10:36:10.689Z,19.76
2023-04-22T10:38:57.714Z,19.67
2023-04-22T10:41:33.385Z,19.47
2023-04-22T10:44:05.684Z,19.08
2023-04-22T10:46:37.375Z,19.11
2023-04-22T10:49:15.691Z,19.15
2023-04-22T10:51:46.750Z,19.33
2023-04-22T10:54:26.925Z,19.41
2023-04-22T10:57:08.743Z,19.83
2023-04-22T11:00:00.333Z,20.16
2023-04-22T11:02:27.494Z,20.04
2023-04-22T11:05:21.903Z,20.21
2023-04-22T11:07:52.419Z,20.44
2023-04-22T11:10:44.376Z,20.52
2023-04-22T11:13:29.479Z,19.77
2023-04-22T11:15:56.309Z,20.07
2023-04-22T11:18:26.089Z,20.23
2023-04-22T11:20:53.694Z,20.33
2023-04-22T11:23:27.223Z,20.51
2023-04-22T11:26:02.753Z,20.65
2023-04-22T11:28:29.642Z,20.72
2023-04-22T11:31:06.840Z,20.77
2023-04-22T11:33:34.701Z,20.57
2023-04-22T11:36:01.672Z,20.81
2023-04-22T11:38:28.797Z,20.63
2023-04-22T11:40:58.376Z,20.84
2023-04-22T11:43:26.108Z,20.87
2023-04-22T11:45:55.766Z,21.09
2023-04-22T11:48:23.011Z,21.08
2023-04-22T11:51:06.925Z,20.99
2023-04-22T11:53:33.689Z,21.09
2023-04-22T11:56:03.762Z,21.27
2023-04-22T11:58:30.615Z,21.61
2023-04-22T12:00:59.226Z,21.58
2023-04-22T12:03:30.200Z,21.68
2023-04-22T12:06:00.913Z,21.62
2023-04-22T12:08:31.895Z,21.35
2023-04-22T12:11:04.122Z,21.14
2023-04-22T12:13:34.192Z,21.21
2023-04-22T12:16:02.779Z,21.18
2023-04-22T12:18:34.670Z,21.01
2023-04-22T12:21:04.765Z,20.98
2023-04-22T12:23:44.490Z,20.82
2023-04-22T12:26:12.907Z,20.61
2023-04-22T12:28:41.099Z,20.54
2023-04-22T12:31:08.969Z,20.49
2023-04-22T12:33:37.334Z,20.47
2023-04-22T12:36:05.638Z,20.42
2023-04-22T12:38:32.765Z,20.40
2023-04-22T12:40:59.656Z,20.34
2023-04-22T12:43:26.541Z,20.29
2023-04-22T12:45:53.395Z,20.30
2023-04-22T12:48:20.641Z,20.27
2023-04-22T12:50:47.342Z,20.22
2023-04-22T12:53:16.176Z,20.22
2023-04-22T12:55:45.373Z,20.22
2023-04-22T12:58:12.872Z,20.21
2023-04-22T13:00:40.041Z,20.09
2023-04-22T13:03:07.364Z,20.10
2023-04-22T13:05:34.212Z,20.02
2023-04-22T13:08:07.092Z,20.00
2023-04-22T13:10:35.642Z,19.96
2023-04-22T13:13:17.536Z,19.90
2023-04-22T13:15:45.525Z,19.90
2023-04-22T13:18:12.356Z,19.91
2023-04-22T13:20:39.996Z,19.89
2023-04-22T13:23:06.674Z,19.83
2023-04-22T13:25:33.399Z,19.76
2023-04-22T13:28:00.154Z,19.76
2023-04-22T13:30:27.071Z,19.76
2023-04-22T13:32:53.853Z,19.70
2023-04-22T13:35:20.736Z,19.69
2023-04-22T13:37:47.527Z,19.69
2023-04-22T13:40:14.289Z,19.63
2023-04-22T13:42:41.180Z,19.59
2023-04-22T13:45:08.472Z,19.56
2023-04-22T13:47:35.445Z,19.51
2023-04-22T13:50:02.505Z,19.35
2023-04-22T13:52:30.603Z,19.28
2023-04-22T13:54:57.260Z,19.36
2023-04-22T13:57:23.936Z,19.36
2023-04-22T13:59:50.665Z,19.34
2023-04-22T14:02:17.815Z,19.48
2023-04-22T14:04:44.570Z,19.53
2023-04-22T14:07:12.106Z,19.41
2023-04-22T14:09:39.147Z,19.39
2023-04-22T14:12:07.963Z,19.38
2023-04-22T14:14:34.701Z,19.30
2023-04-22T14:17:01.477Z,19.35
2023-04-22T14:19:30.243Z,19.35
2023-04-22T14:21:57.665Z,19.20
2023-04-22T14:24:24.774Z,19.13
2023-04-22T14:26:52.293Z,19.11
2023-04-22T14:29:19.194Z,19.10
2023-04-22T14:31:45.895Z,19.02
2023-04-22T14:34:12.693Z,19.11
2023-04-22T14:36:39.384Z,19.15
2023-04-22T14:39:06.252Z,19.19
2023-04-22T14:41:33.118Z,19.24
2023-04-22T14:44:00.212Z,19.22
2023-04-22T14:46:27.002Z,19.20
2023-04-22T14:48:53.655Z,19.27
2023-04-22T14:51:21.111Z,19.26
2023-04-22T14:53:47.925Z,19.27
2023-04-22T14:56:14.705Z,19.23
2023-04-22T14:58:41.494Z,19.37
2023-04-22T15:01:08.386Z,19.50
2023-04-22T15:03:35.819Z,19.73
2023-04-22T15:06:03.043Z,19.76
2023-04-22T15:08:29.996Z,20.17
2023-04-22T15:10:56.923Z,20.06
2023-04-22T15:13:23.898Z,20.12
2023-04-22T15:15:50.698Z,19.94
2023-04-22T15:18:17.496Z,19.75
2023-04-22T15:20:44.357Z,19.85
2023-04-22T15:23:11.207Z,19.86
2023-04-22T15:25:38.205Z,19.85
2023-04-22T15:28:04.979Z,19.83
2023-04-22T15:30:31.690Z,19.82
2023-04-22T15:32:58.485Z,19.68
2023-04-22T15:35:25.275Z,19.94
2023-04-22T15:37:52.837Z,20.14
2023-04-22T15:40:19.817Z,20.15
2023-04-22T15:42:47.026Z,19.95
2023-04-22T15:45:13.739Z,19.89
2023-04-22T15:47:41.667Z,20.24
2023-04-22T15:50:09.723Z,20.34
2023-04-22T15:52:38.136Z,20.34
2023-04-22T15:55:06.496Z,20.29
2023-04-22T15:57:35.408Z,20.35
2023-04-22T16:00:13.389Z,20.29
2023-04-22T16:02:44.977Z,20.25
2023-04-22T16:05:13.872Z,20.06
2023-04-22T16:07:40.683Z,20.04
2023-04-22T16:10:09.273Z,19.94
2023-04-22T16:12:36.180Z,19.91
2023-04-22T16:15:02.924Z,19.93
2023-04-22T16:17:32.014Z,19.79
2023-04-22T16:19:58.867Z,19.89
2023-04-22T16:22:25.579Z,19.70
2023-04-22T16:24:52.365Z,19.75
2023-04-22T16:27:19.244Z,19.70
2023-04-22T16:29:46.072Z,19.67
2023-04-22T16:32:12.838Z,19.59
2023-04-22T16:34:39.664Z,19.59
2023-04-22T16:37:06.498Z,19.54
2023-04-22T16:39:33.734Z,19.51
2023-04-22T16:42:02.283Z,19.49
2023-04-22T16:44:29.213Z,19.43
2023-04-22T16:46:56.082Z,19.39
2023-04-22T16:49:22.833Z,19.42
2023-04-22T16:51:49.867Z,19.42
2023-04-22T16:54:16.551Z,19.34
2023-04-22T16:56:43.248Z,19.35
2023-04-22T16:59:10.219Z,19.40
2023-04-22T17:01:37.363Z,19.39
2023-04-22T17:04:04.197Z,19.37
2023-04-22T17:06:31.188Z,19.37
2023-04-22T17:08:59.828Z,19.38
2023-04-22T17:11:26.562Z,19.40
2023-04-22T17:13:53.319Z,19.34
2023-04-22T17:16:20.931Z,19.25
2023-04-22T17:18:47.845Z,19.24
2023-04-22T17:21:15.138Z,19.26
2023-04-22T17:23:42.071Z,19.23
2023-04-22T17:26:08.826Z,19.21
2023-04-22T17:28:35.644Z,19.21
2023-04-22T17:31:03.860Z,19.21
2023-04-22T17:33:31.204Z,19.13
2023-04-22T17:35:57.959Z,19.13
2023-04-22T17:38:24.968Z,19.11
2023-04-22T17:40:51.653Z,19.09
2023-04-22T17:43:18.317Z,19.10
2023-04-22T17:45:45.201Z,19.10
2023-04-22T17:48:11.961Z,19.08
2023-04-22T17:50:38.829Z,19.01
2023-04-22T17:53:05.530Z,18.96
2023-04-22T17:55:35.078Z,18.98
2023-04-22T17:58:02.572Z,18.93
2023-04-22T18:00:30.028Z,19.02
2023-04-22T18:02:57.059Z,18.92
2023-04-22T18:05:23.996Z,18.78
2023-04-22T18:07:50.855Z,18.78
2023-04-22T18:10:17.533Z,18.75
2023-04-22T18:12:44.204Z,18.45
2023-04-22T18:15:10.989Z,18.49
2023-04-22T18:17:37.851Z,18.51
2023-04-22T18:20:16.641Z,18.53
2023-04-22T18:22:45.469Z,18.42
2023-04-22T18:25:12.268Z,18.28
2023-04-22T18:27:38.995Z,18.26
2023-04-22T18:30:06.394Z,18.24
2023-04-22T18:32:33.300Z,18.21
2023-04-22T18:35:00.048Z,18.26
2023-04-22T18:37:30.577Z,18.22
2023-04-22T18:39:57.497Z,18.23
2023-04-22T18:42:24.434Z,18.17
2023-04-22T18:44:51.684Z,18.14
2023-04-22T18:47:18.405Z,18.07
2023-04-22T18:49:45.296Z,18.08
2023-04-22T18:52:12.222Z,18.02
2023-04-22T18:54:39.604Z,18.03
2023-04-22T18:57:06.838Z,17.96
2023-04-22T18:59:33.527Z,17.92
2023-04-22T19:02:00.347Z,17.93
2023-04-22T19:04:27.663Z,17.94
2023-04-22T19:06:56.857Z,17.92
2023-04-22T19:09:24.011Z,17.93
2023-04-22T19:11:50.877Z,17.79
2023-04-22T19:14:17.517Z,17.71
2023-04-22T19:16:44.264Z,17.71
2023-04-22T19:19:12.041Z,17.69
2023-04-22T19:21:39.676Z,17.62
2023-04-22T19:24:06.940Z,17.67
2023-04-22T19:26:34.002Z,17.70
2023-04-22T19:29:01.119Z,17.67
2023-04-22T19:31:28.985Z,17.58
2023-04-22T19:33:55.887Z,17.49
2023-04-22T19:36:22.774Z,17.52
2023-04-22T19:38:49.574Z,17.58
2023-04-22T19:41:16.570Z,17.49
2023-04-22T19:43:43.431Z,17.51
2023-04-22T19:46:10.277Z,17.48
2023-04-22T19:48:37.501Z,17.41
2023-04-22T19:51:06.112Z,17.38
2023-04-22T19:53:33.651Z,17.24
2023-04-22T19:56:00.857Z,17.00
2023-04-22T19:58:28.556Z,17.15
2023-04-22T20:00:55.849Z,17.08
2023-04-22T20:03:23.180Z,16.96
2023-04-22T20:05:50.385Z,17.00
2023-04-22T20:08:19.760Z,16.95
2023-04-22T20:10:49.171Z,16.90
2023-04-22T20:13:16.860Z,16.84
2023-04-22T20:15:44.401Z,16.76
2023-04-22T20:18:11.817Z,16.83
2023-04-22T20:20:40.408Z,16.82
2023-04-22T20:23:10.491Z,16.72
2023-04-22T20:25:42.079Z,16.67
2023-04-22T20:28:10.619Z,16.63
2023-04-22T20:30:39.096Z,16.60
2023-04-22T20:33:06.153Z,16.44
2023-04-22T20:35:35.608Z,16.41
2023-04-22T20:38:03.548Z,16.38
2023-04-22T20:40:30.679Z,16.32
2023-04-22T20:42:58.662Z,16.32
2023-04-22T20:45:27.220Z,16.25
2023-04-22T20:47:54.121Z,16.18
2023-04-22T20:50:20.958Z,16.16
2023-04-22T20:52:48.957Z,16.17
2023-04-22T20:55:16.763Z,16.21
2023-04-22T20:57:43.489Z,16.21
2023-04-22T21:00:10.709Z,16.19
2023-04-22T21:02:43.636Z,16.19
2023-04-22T21:05:11.876Z,16.17
2023-04-22T21:07:39.420Z,16.24
2023-04-22T21:10:07.367Z,16.06
2023-04-22T21:12:34.538Z,16.24
2023-04-22T21:15:01.515Z,16.36
2023-04-22T21:17:32.439Z,16.20
2023-04-22T21:20:01.291Z,16.23
2023-04-22T21:22:29.483Z,16.21
2023-04-22T21:24:56.885Z,16.05
2023-04-22T21:27:23.785Z,16.14
2023-04-22T21:29:50.821Z,15.98
2023-04-22T21:32:20.046Z,16.10
2023-04-22T21:34:46.889Z,15.95
2023-04-22T21:37:13.875Z,15.97
2023-04-22T21:39:40.862Z,16.09
2023-04-22T21:42:08.643Z,16.09
2023-04-22T21:44:37.229Z,16.07
2023-04-22T21:47:05.151Z,15.87
2023-04-22T21:49:32.101Z,15.80
2023-04-22T21:51:59.303Z,15.72
2023-04-22T21:54:26.840Z,15.60
2023-04-22T21:56:54.204Z,15.55
2023-04-22T21:59:20.932Z,15.49
2023-04-22T22:01:47.819Z,15.45
2023-04-22T22:04:15.947Z,15.52
2023-04-22T22:06:45.199Z,15.42
2023-04-22T22:09:12.762Z,15.59
2023-04-22T22:11:39.580Z,15.71
2023-04-22T22:14:06.353Z,15.62
2023-04-22T22:16:33.350Z,15.47
2023-04-22T22:19:02.744Z,15.45
2023-04-22T22:21:29.766Z,15.48
2023-04-22T22:23:57.839Z,15.31
2023-04-22T22:26:26.205Z,15.35
2023-04-22T22:28:53.090Z,15.33
2023-04-22T22:31:20.045Z,15.32
2023-04-22T22:33:46.949Z,15.20
2023-04-22T22:36:13.894Z,15.27
2023-04-22T22:38:40.843Z,15.25
2023-04-22T22:41:07.966Z,15.51
2023-04-22T22:43:34.729Z,15.25
2023-04-22T22:46:01.803Z,15.14
2023-04-22T22:48:28.951Z,15.23
2023-04-22T22:50:56.613Z,15.05
2023-04-22T22:53:23.342Z,15.04
2023-04-22T22:55:49.996Z,14.96
2023-04-22T22:58:16.857Z,15.11
2023-04-22T23:00:43.580Z,15.11
2023-04-22T23:03:10.653Z,14.84
2023-04-22T23:05:37.796Z,14.78
2023-04-22T23:08:04.709Z,14.73
2023-04-22T23:10:31.524Z,14.69
2023-04-22T23:12:58.356Z,14.59
2023-04-22T23:15:25.108Z,14.63
2023-04-22T23:17:52.232Z,14.61
2023-04-22T23:20:20.462Z,14.62
2023-04-22T23:22:49.509Z,14.58
2023-04-22T23:25:18.347Z,14.60
2023-04-22T23:27:45.318Z,14.73
2023-04-22T23:30:12.577Z,14.70
2023-04-22T23:32:40.557Z,14.61
2023-04-22T23:35:08.626Z,14.58
2023-04-22T23:37:37.582Z,14.71
2023-04-22T23:40:04.877Z,14.62
2023-04-22T23:42:32.312Z,14.55
2023-04-22T23:44:59.047Z,14.58
2023-04-22T23:47:26.032Z,14.47
2023-04-22T23:49:52.870Z,14.48
2023-04-22T23:52:20.331Z,14.45
2023-04-22T23:54:47.362Z,14.49
2023-04-22T23:57:14.351Z,14.44
2023-04-22T23:59:41.528Z,14.33
